Time;durP1;ratioP1;P1;durP2;ratioP2;P2;SDS_P1;SDS_P2;PMS_P1;PMS_P2;Temp;Humidity;BMP_temperature;BMP_pressure;BME280_temperature;BME280_humidity;BME280_pressure;Samples;Min_cycle;Max_cycle;Signal;HPM_P1;HPM_P2
2021/09/02 00:01:53;;;;;;;5.13;3.13;;;;;;;21.62;37.84;99551.75;5053558;28;20414;-75
2021/09/02 00:04:19;;;;;;;3.50;3.00;;;;;;;22.60;37.73;99708.66;5052934;28;20383;-75
2021/09/02 00:06:44;;;;;;;3.58;3.22;;;;;;;22.58;37.97;99702.69;5052384;28;20024;-75
2021/09/02 00:09:09;;;;;;;4.68;3.63;;;;;;;22.19;37.89;99648.97;5053669;28;20032;-75
2021/09/02 00:11:35;;;;;;;4.20;3.20;;;;;;;22.45;37.92;99709.28;5053463;28;20498;-75
2021/09/02 00:14:00;;;;;;;3.50;3.20;;;;;;;22.11;37.90;99676.31;5051924;28;20045;-75
2021/09/02 00:16:25;;;;;;;4.10;2.83;;;;;;;22.22;38.11;99714.09;5053351;28;20024;-75
2021/09/02 00:18:51;;;;;;;4.70;3.30;;;;;;;22.01;38.11;99678.03;5053559;28;20024;-75
2021/09/02 00:21:16;;;;;;;2.90;2.67;;;;;;;22.07;37.98;99685.94;5053344;28;20079;-75
2021/09/02 00:23:42;;;;;;;6.00;3.10;;;;;;;21.89;37.78;99657.44;5053228;28;20027;-81
2021/09/02 00:26:07;;;;;;;4.55;2.95;;;;;;;21.91;37.64;99657.19;5051916;28;20425;-81
2021/09/02 00:28:32;;;;;;;4.55;3.28;;;;;;;22.05;37.60;99680.00;5053192;28;20032;-81
2021/09/02 00:30:58;;;;;;;4.28;3.40;;;;;;;22.11;37.60;99713.97;5053134;28;20071;-81
2021/09/02 00:33:23;;;;;;;5.00;3.30;;;;;;;21.51;37.50;99611.75;5053240;28;20537;-81
2021/09/02 00:35:49;;;;;;;4.50;3.28;;;;;;;21.40;37.43;99613.47;5051602;28;20027;-81
2021/09/02 00:38:14;;;;;;;4.35;3.30;;;;;;;21.92;37.51;99712.59;5053105;28;20508;-80
2021/09/02 00:40:39;;;;;;;5.47;3.13;;;;;;;21.83;37.70;99693.38;5052907;28;20032;-80
2021/09/02 00:43:05;;;;;;;4.80;3.22;;;;;;;22.02;37.30;99719.97;5052758;28;20029;-81
2021/09/02 00:45:32;;;;;;;3.30;3.00;;;;;;;21.63;37.34;99658.16;5052872;28;20025;-81
2021/09/02 00:47:57;;;;;;;3.70;3.40;;;;;;;21.85;37.33;99703.91;5052989;28;20025;-80
2021/09/02 00:50:23;;;;;;;5.72;3.38;;;;;;;21.33;37.40;99625.47;5052868;28;20505;-81
2021/09/02 00:52:48;;;;;;;4.13;3.33;;;;;;;21.89;37.48;99723.84;5051179;28;20486;-81
2021/09/02 00:55:14;;;;;;;4.07;3.53;;;;;;;21.41;37.48;99649.22;5052418;28;20501;-81
2021/09/02 00:57:39;;;;;;;3.83;3.10;;;;;;;21.70;37.36;99714.44;5052647;28;20025;-81
2021/09/02 01:00:12;;;;;;;4.57;3.03;;;;;;;21.76;37.46;99713.44;5052623;28;20028;-82
2021/09/02 01:02:40;;;;;;;3.92;3.42;;;;;;;21.39;37.45;99678.19;5052341;28;20108;-81
2021/09/02 01:05:07;;;;;;;3.97;2.88;;;;;;;21.73;37.55;99735.44;5052393;28;20025;-82
2021/09/02 01:07:33;;;;;;;6.05;3.47;;;;;;;21.13;37.62;99636.69;5052645;28;20032;-81
2021/09/02 01:10:00;;;;;;;4.05;3.47;;;;;;;21.62;37.80;99715.66;5052759;28;20025;-81
2021/09/02 01:12:45;;;;;;;5.60;3.38;;;;;;;21.28;37.68;99666.47;5052504;28;20024;-81
2021/09/02 01:15:22;;;;;;;4.60;3.40;;;;;;;21.36;37.71;99678.69;5051464;28;20040;-81
2021/09/02 01:17:50;;;;;;;4.60;3.92;;;;;;;21.59;37.66;99718.03;5051000;28;20453;-81
2021/09/02 01:20:21;;;;;;;5.72;3.53;;;;;;;21.18;37.53;99652.88;5052250;28;20028;-80
2021/09/02 01:22:48;;;;;;;4.85;3.40;;;;;;;21.51;37.79;99727.28;5050746;28;20443;-81
2021/09/02 01:25:17;;;;;;;8.00;3.50;;;;;;;21.16;38.00;99688.00;5051902;28;20036;-82
2021/09/02 01:27:45;;;;;;;7.10;3.47;;;;;;;21.47;38.01;99728.81;5052171;28;20029;-81
2021/09/02 01:30:13;;;;;;;4.85;3.40;;;;;;;21.54;37.88;99722.22;5052148;28;20482;-79
2021/09/02 01:32:41;;;;;;;4.88;3.83;;;;;;;21.52;37.78;99721.66;5051807;28;20100;-79
2021/09/02 01:35:09;;;;;;;6.68;4.13;;;;;;;21.50;37.71;99721.09;5051692;28;20025;-82
2021/09/02 01:37:51;;;;;;;7.38;3.78;;;;;;;21.51;37.70;99709.28;5052043;28;20029;-82
2021/09/02 01:40:19;;;;;;;6.95;3.70;;;;;;;21.50;37.84;99713.03;5051878;28;20056;-82
2021/09/02 01:42:45;;;;;;;4.50;3.45;;;;;;;20.63;37.80;99621.31;5050637;28;20507;-82
2021/09/02 01:45:12;;;;;;;6.70;4.03;;;;;;;21.45;37.90;99726.38;5051769;28;20055;-82
2021/09/02 01:47:37;;;;;;;5.00;3.60;;;;;;;21.14;37.91;99682.06;5050392;28;20409;-81
2021/09/02 01:50:08;;;;;;;6.38;3.90;;;;;;;20.92;37.98;99670.44;5051732;28;20047;-81
2021/09/02 01:52:34;;;;;;;5.88;3.90;;;;;;;21.10;38.12;99696.22;5051473;28;20029;-81
2021/09/02 01:54:59;;;;;;;4.90;3.60;;;;;;;20.98;38.06;99674.81;5051402;28;20029;-81
2021/09/02 01:57:25;;;;;;;5.78;3.95;;;;;;;21.08;38.30;99701.84;5051529;28;20078;-81
2021/09/02 01:59:51;;;;;;;5.63;4.05;;;;;;;20.98;38.28;99680.19;5051547;28;20029;-82
2021/09/02 02:02:16;;;;;;;4.25;3.45;;;;;;;20.92;38.37;99684.66;5051254;28;20025;-82
2021/09/02 02:04:41;;;;;;;4.55;3.25;;;;;;;20.73;38.52;99667.13;5051124;28;20107;-80
2021/09/02 02:07:07;;;;;;;4.78;3.90;;;;;;;20.74;38.54;99663.38;5050363;28;20029;-82
2021/09/02 02:09:32;;;;;;;6.38;4.00;;;;;;;20.84;38.59;99690.44;5051505;28;20052;-82
2021/09/02 02:11:58;;;;;;;5.22;4.10;;;;;;;20.94;38.60;99700.53;5051226;28;20103;-81
2021/09/02 02:14:24;;;;;;;4.47;3.95;;;;;;;20.84;38.52;99676.19;5051037;28;20410;-81
2021/09/02 02:16:49;;;;;;;5.40;4.03;;;;;;;20.73;38.55;99674.34;5051297;28;20032;-82
2021/09/02 02:19:15;;;;;;;4.35;3.58;;;;;;;20.99;38.56;99707.84;5051434;28;20100;-81
2021/09/02 02:21:40;;;;;;;5.97;3.90;;;;;;;20.98;38.67;99716.97;5049976;28;20524;-82
2021/09/02 02:24:06;;;;;;;9.13;3.95;;;;;;;20.35;38.94;99632.84;5051225;28;20411;-75
2021/09/02 02:26:31;;;;;;;5.13;3.60;;;;;;;20.56;38.86;99660.91;5051012;28;20032;-73
2021/09/02 02:28:56;;;;;;;5.80;4.00;;;;;;;20.93;38.88;99723.88;5050862;28;20025;-76
2021/09/02 02:31:22;;;;;;;7.35;4.40;;;;;;;21.01;38.78;99717.28;5051189;28;20086;-75
2021/09/02 02:33:47;;;;;;;6.30;3.97;;;;;;;21.03;38.93;99722.41;5051131;28;20049;-75
2021/09/02 02:36:13;;;;;;;6.53;4.38;;;;;;;20.87;38.82;99687.25;5051229;28;20029;-75
2021/09/02 02:38:38;;;;;;;7.30;4.03;;;;;;;20.85;38.72;99673.25;5049692;28;20635;-75
2021/09/02 02:41:04;;;;;;;5.53;4.00;;;;;;;21.11;38.58;99714.78;5050951;28;20091;-75
2021/09/02 02:43:29;;;;;;;5.00;4.22;;;;;;;20.94;38.92;99708.56;5050876;28;20493;-75
2021/09/02 02:45:57;;;;;;;5.10;3.70;;;;;;;20.91;38.90;99717.13;5050952;28;20033;-75
2021/09/02 02:48:22;;;;;;;7.35;4.10;;;;;;;20.84;39.02;99711.91;5051089;28;20040;-75
2021/09/02 02:50:48;;;;;;;6.95;3.80;;;;;;;20.62;39.01;99666.13;5051087;28;20055;-75
2021/09/02 02:53:13;;;;;;;5.05;4.45;;;;;;;20.84;39.12;99711.09;5051013;28;20024;-74
2021/09/02 02:55:38;;;;;;;5.70;4.40;;;;;;;20.78;39.08;99698.59;5050729;28;20036;-75
2021/09/02 02:58:04;;;;;;;5.53;4.35;;;;;;;20.76;39.00;99704.19;5050819;28;20025;-75
2021/09/02 03:00:29;;;;;;;5.60;4.22;;;;;;;20.82;39.20;99713.19;5050625;28;20027;-75
2021/09/02 03:02:55;;;;;;;6.72;4.30;;;;;;;20.59;39.21;99673.84;5049575;28;20111;-74
2021/09/02 03:05:20;;;;;;;6.60;4.13;;;;;;;20.74;39.29;99702.81;5050718;28;20599;-75
2021/09/02 03:07:46;;;;;;;7.15;4.45;;;;;;;20.69;39.24;99682.06;5051057;28;20025;-74
2021/09/02 03:10:11;;;;;;;5.75;4.63;;;;;;;20.78;39.29;99706.66;5050669;28;20029;-75
2021/09/02 03:12:37;;;;;;;7.03;4.50;;;;;;;20.83;39.39;99712.13;5050503;28;20017;-75
2021/09/02 03:15:04;;;;;;;6.07;4.07;;;;;;;20.85;39.39;99716.22;5050424;28;20079;-75
2021/09/02 03:17:30;;;;;;;5.80;4.43;;;;;;;20.85;39.37;99720.75;5050579;28;20151;-74
2021/09/02 03:19:55;;;;;;;5.70;4.28;;;;;;;20.91;39.36;99719.78;5050693;28;20112;-74
2021/09/02 03:22:21;;;;;;;5.80;4.22;;;;;;;20.95;39.47;99712.88;5050684;28;20029;-74
2021/09/02 03:24:46;;;;;;;6.97;4.47;;;;;;;20.59;39.32;99668.47;5050634;28;20025;-74
2021/09/02 03:27:12;;;;;;;8.60;4.90;;;;;;;20.45;39.37;99643.81;5050522;28;20036;-74
2021/09/02 03:29:37;;;;;;;6.85;4.53;;;;;;;20.77;39.55;99727.31;5050469;28;20029;-74
2021/09/02 03:32:03;;;;;;;8.65;4.53;;;;;;;20.67;39.78;99708.31;5049122;28;20108;-75
2021/09/02 03:34:28;;;;;;;4.60;4.15;;;;;;;20.82;39.68;99726.63;5049193;28;20024;-75
2021/09/02 03:36:54;;;;;;;6.53;4.82;;;;;;;20.69;39.42;99697.34;5050442;28;20045;-74
2021/09/02 03:39:19;;;;;;;15.60;9.63;;;;;;;20.87;39.56;99732.06;5053058;28;20107;-75
2021/09/02 03:41:44;;;;;;;6.68;5.00;;;;;;;20.72;39.57;99721.84;5052523;28;20494;-74
2021/09/02 03:44:11;;;;;;;9.07;5.03;;;;;;;20.82;39.78;99729.28;5054048;28;20052;-74
2021/09/02 03:46:36;;;;;;;7.72;5.03;;;;;;;20.55;39.47;99691.47;5053960;28;20500;-75
2021/09/02 03:49:03;;;;;;;5.22;4.55;;;;;;;20.70;39.93;99734.69;5054053;28;20029;-74
2021/09/02 03:51:28;;;;;;;6.88;4.40;;;;;;;20.63;40.03;99737.50;5053928;28;20108;-74
2021/09/02 03:53:53;;;;;;;9.25;4.95;;;;;;;20.45;40.15;99710.03;5053634;28;20508;-75
2021/09/02 03:56:19;;;;;;;6.97;4.43;;;;;;;20.55;40.08;99731.69;5053662;28;20032;-75
2021/09/02 03:58:44;;;;;;;6.63;4.53;;;;;;;20.17;40.34;99673.25;5053880;28;20029;-74
2021/09/02 04:01:10;;;;;;;6.07;4.53;;;;;;;20.42;40.29;99715.88;5053779;28;20033;-75
2021/09/02 04:03:35;;;;;;;7.18;4.95;;;;;;;20.23;40.43;99685.72;5053593;28;20025;-74
2021/09/02 04:06:01;;;;;;;6.07;4.70;;;;;;;20.38;40.56;99730.78;5053822;28;20036;-75
2021/09/02 04:08:26;;;;;;;7.00;5.15;;;;;;;20.50;40.57;99751.19;5053405;28;20029;-74
2021/09/02 04:10:51;;;;;;;6.90;5.07;;;;;;;20.27;40.72;99722.53;5053319;28;20024;-75
2021/09/02 04:13:17;;;;;;;7.32;5.28;;;;;;;20.45;40.69;99756.47;5053132;28;20049;-75
2021/09/02 04:15:43;;;;;;;6.75;5.20;;;;;;;20.17;40.80;99714.28;5053171;28;20025;-74
2021/09/02 04:18:08;;;;;;;8.75;5.10;;;;;;;20.43;40.92;99749.69;5053242;28;20024;-74
2021/09/02 04:20:33;;;;;;;5.82;4.75;;;;;;;20.39;40.98;99756.56;5053119;28;20158;-74
2021/09/02 04:22:59;;;;;;;7.57;5.10;;;;;;;20.29;41.25;99755.28;5053390;28;20032;-73
2021/09/02 04:25:24;;;;;;;7.38;5.18;;;;;;;20.23;41.28;99758.91;5053586;28;20025;-81
2021/09/02 04:27:50;;;;;;;6.88;4.72;;;;;;;19.86;41.27;99704.75;5053105;28;20523;-82
2021/09/02 04:30:15;;;;;;;5.22;4.72;;;;;;;19.98;41.42;99700.19;5053153;28;20485;-81
2021/09/02 04:32:44;;;;;;;9.25;5.22;;;;;;;20.18;41.58;99740.03;5053256;28;20025;-82
2021/09/02 04:35:11;;;;;;;9.32;5.40;;;;;;;20.28;41.67;99755.53;5051946;28;20413;-81
2021/09/02 04:37:39;;;;;;;5.45;4.88;;;;;;;19.73;41.75;99666.66;5053309;28;20025;-81
2021/09/02 04:40:06;;;;;;;5.72;4.57;;;;;;;20.00;41.86;99719.53;5053008;28;20033;-81
2021/09/02 04:42:31;;;;;;;8.57;4.90;;;;;;;20.25;41.74;99756.81;5051836;28;20035;-81
2021/09/02 04:44:57;;;;;;;8.75;5.30;;;;;;;19.88;41.65;99691.94;5052916;28;20020;-82
2021/09/02 04:47:22;;;;;;;6.22;5.45;;;;;;;20.27;41.84;99753.91;5052919;28;20125;-81
2021/09/02 04:49:48;;;;;;;6.88;4.93;;;;;;;20.38;41.79;99765.66;5052630;28;20522;-81
2021/09/02 04:52:13;;;;;;;7.85;4.55;;;;;;;19.94;41.84;99704.38;5052601;28;20029;-82
2021/09/02 04:54:39;;;;;;;6.95;4.75;;;;;;;20.38;41.81;99765.66;5052348;28;20508;-82
2021/09/02 04:57:04;;;;;;;6.70;4.85;;;;;;;20.04;41.96;99709.16;5052448;28;20112;-81
2021/09/02 04:59:30;;;;;;;7.13;4.53;;;;;;;20.15;41.87;99727.13;5052895;28;20108;-81
2021/09/02 05:01:55;;;;;;;5.30;4.60;;;;;;;19.80;42.14;99694.97;5052648;28;20444;-81
2021/09/02 05:04:20;;;;;;;6.75;5.40;;;;;;;20.28;42.08;99753.66;5052508;28;20021;-81
2021/09/02 05:06:46;;;;;;;8.18;5.00;;;;;;;20.29;42.07;99776.75;5052533;28;20036;-81
2021/09/02 05:09:11;;;;;;;9.95;5.13;;;;;;;19.79;42.12;99690.66;5051713;28;20024;-81
2021/09/02 05:11:37;;;;;;;8.63;5.28;;;;;;;20.35;41.97;99777.66;5050648;28;20066;-81
2021/09/02 05:14:02;;;;;;;12.35;4.82;;;;;;;20.10;42.06;99735.03;5050359;28;20052;-81
2021/09/02 05:16:27;;;;;;;7.50;4.03;;;;;;;20.39;41.86;99794.09;5052206;28;20191;-80
2021/09/02 05:18:53;;;;;;;6.47;4.75;;;;;;;20.18;41.79;99755.31;5052244;28;20111;-81
2021/09/02 05:21:18;;;;;;;6.50;4.82;;;;;;;20.51;41.63;99797.59;5047170;28;20029;-80
2021/09/02 05:23:44;;;;;;;6.10;4.18;;;;;;;20.57;41.35;99804.72;5032392;28;20041;-75
2021/09/02 05:26:09;;;;;;;6.50;4.82;;;;;;;20.59;41.52;99791.88;5032082;28;20159;-74
2021/09/02 05:28:34;;;;;;;6.40;4.50;;;;;;;20.51;41.47;99776.16;5031748;28;20021;-74
2021/09/02 05:31:00;;;;;;;6.80;4.47;;;;;;;20.70;41.37;99811.69;5031743;28;20112;-75
2021/09/02 05:33:25;;;;;;;4.88;4.13;;;;;;;20.71;41.23;99803.38;5035470;28;20029;-75
2021/09/02 05:35:51;;;;;;;5.68;4.60;;;;;;;20.75;41.05;99801.84;5051736;28;20478;-74
2021/09/02 05:38:16;;;;;;;5.32;4.13;;;;;;;20.73;41.15;99797.78;5036624;28;20095;-74
2021/09/02 05:40:41;;;;;;;6.07;4.25;;;;;;;20.83;41.03;99804.19;5034004;28;20413;-74
2021/09/02 05:43:07;;;;;;;6.90;4.18;;;;;;;20.69;40.86;99775.97;5040220;28;20029;-75
2021/09/02 05:45:33;;;;;;;7.28;4.18;;;;;;;20.91;40.83;99798.44;5043513;28;20375;-75
2021/09/02 05:47:59;;;;;;;6.38;4.10;;;;;;;20.43;40.99;99734.41;5064133;28;20032;-75
2021/09/02 05:50:24;;;;;;;8.32;4.55;;;;;;;20.72;40.58;99754.03;5052597;28;20422;-75
2021/09/02 05:52:50;;;;;;;7.95;4.85;;;;;;;20.84;40.55;99779.00;5051024;28;20111;-75
2021/09/02 05:55:15;;;;;;;8.05;4.88;;;;;;;21.04;40.43;99797.34;5051025;28;20048;-75
2021/09/02 05:57:42;;;;;;;6.32;4.07;;;;;;;21.10;40.12;99809.00;5050991;28;20414;-75
2021/09/02 06:00:08;;;;;;;6.45;3.78;;;;;;;21.12;40.05;99805.00;5041423;28;20025;-74
2021/09/02 06:02:33;;;;;;;6.20;4.15;;;;;;;21.10;39.91;99806.31;5041562;28;20493;-75
2021/09/02 06:04:59;;;;;;;5.88;4.07;;;;;;;21.15;39.72;99796.47;5045096;28;20095;-74
2021/09/02 06:07:24;;;;;;;6.95;4.40;;;;;;;21.03;39.67;99768.06;5033763;28;20032;-75
2021/09/02 06:09:50;;;;;;;6.32;4.57;;;;;;;21.31;39.81;99808.34;5031165;28;20029;-75
2021/09/02 06:12:15;;;;;;;6.38;5.45;;;;;;;21.37;39.70;99818.13;5038692;28;20045;-75
2021/09/02 06:14:40;;;;;;;9.38;5.03;;;;;;;21.12;39.67;99755.88;5032109;28;20033;-75
2021/09/02 06:17:06;;;;;;;4.63;4.10;;;;;;;21.48;39.51;99795.75;5031697;28;20108;-76
2021/09/02 06:19:31;;;;;;;5.95;3.88;;;;;;;21.18;39.37;99744.16;5040443;28;20020;-75
2021/09/02 06:21:57;;;;;;;5.32;3.70;;;;;;;21.55;39.36;99783.00;5030277;28;20029;-76
2021/09/02 06:24:22;;;;;;;6.90;4.78;;;;;;;21.65;39.18;99795.78;5031813;28;20492;-75
2021/09/02 06:26:48;;;;;;;8.55;3.97;;;;;;;21.51;39.12;99764.88;5033550;28;20112;-75
2021/09/02 06:29:13;;;;;;;4.25;3.85;;;;;;;21.22;39.00;99734.56;5043298;28;20025;-75
2021/09/02 06:31:38;;;;;;;7.35;4.68;;;;;;;21.65;39.19;99790.41;5045989;28;20078;-75
2021/09/02 06:34:04;;;;;;;4.97;3.95;;;;;;;21.74;39.17;99796.19;5037913;28;20029;-75
2021/09/02 06:36:29;;;;;;;5.10;3.95;;;;;;;21.71;39.19;99773.31;5060108;28;20020;-74
2021/09/02 06:38:54;;;;;;;4.50;4.10;;;;;;;21.97;38.86;99798.69;5048189;28;20100;-75
2021/09/02 06:41:20;;;;;;;6.65;4.03;;;;;;;21.92;38.69;99793.25;5045008;28;20048;-74
2021/09/02 06:43:45;;;;;;;6.72;3.97;;;;;;;21.88;38.38;99786.72;5048941;28;20025;-75
2021/09/02 06:46:11;;;;;;;9.02;4.05;;;;;;;22.02;38.41;99806.03;5035122;28;20037;-76
2021/09/02 06:48:36;;;;;;;3.90;3.38;;;;;;;22.14;38.35;99807.59;5038424;28;20498;-75
2021/09/02 06:51:02;;;;;;;7.18;5.15;;;;;;;22.14;38.14;99798.69;5041181;28;20028;-76
2021/09/02 06:53:27;;;;;;;5.90;4.22;;;;;;;22.03;37.90;99794.25;5057297;28;20052;-75
2021/09/02 06:55:52;;;;;;;5.20;4.00;;;;;;;22.00;37.91;99765.94;5061288;28;20033;-75
2021/09/02 06:58:18;;;;;;;5.03;3.97;;;;;;;22.34;37.84;99793.63;5056778;28;20025;-75
2021/09/02 07:00:43;;;;;;;5.28;3.20;;;;;;;22.32;37.72;99801.13;5053347;28;20043;-75
2021/09/02 07:03:09;;;;;;;4.88;3.28;;;;;;;22.40;37.46;99799.91;5057175;28;20036;-75
2021/09/02 07:05:34;;;;;;;5.18;4.20;;;;;;;22.41;37.41;99796.13;5030594;28;20107;-75
2021/09/02 07:07:59;;;;;;;5.55;4.00;;;;;;;22.36;37.30;99794.19;5036916;28;20112;-75
2021/09/02 07:10:25;;;;;;;4.68;2.97;;;;;;;22.54;37.11;99813.78;5045302;28;20108;-74
2021/09/02 07:12:51;;;;;;;7.80;4.88;;;;;;;22.60;37.06;99815.47;5031353;28;20024;-74
2021/09/02 07:15:16;;;;;;;5.53;3.95;;;;;;;22.68;37.10;99815.88;5035977;28;20044;-75
2021/09/02 07:17:42;;;;;;;5.80;3.83;;;;;;;22.30;36.99;99736.00;5039429;28;20029;-74
2021/09/02 07:20:08;;;;;;;6.05;4.07;;;;;;;22.87;36.88;99821.78;5034049;28;20118;-75
2021/09/02 07:22:33;;;;;;;6.53;3.40;;;;;;;22.94;36.58;99821.56;5033868;28;20072;-74
2021/09/02 07:24:59;;;;;;;5.38;3.80;;;;;;;22.98;36.68;99812.75;5043458;28;20079;-75
2021/09/02 07:27:24;;;;;;;4.70;3.42;;;;;;;23.16;36.53;99814.31;5053948;28;20099;-76
2021/09/02 07:29:50;;;;;;;5.53;3.00;;;;;;;23.33;36.30;99833.88;5053518;28;20028;-75
2021/09/02 07:32:15;;;;;;;6.28;4.80;;;;;;;23.05;36.16;99777.56;5056835;28;20032;-75
2021/09/02 07:34:41;;;;;;;4.47;2.90;;;;;;;23.36;35.91;99833.38;5045335;28;20086;-75
2021/09/02 07:37:06;;;;;;;6.70;5.85;;;;;;;23.41;35.73;99835.28;5035646;28;20030;-75
2021/09/02 07:39:32;;;;;;;10.82;7.30;;;;;;;23.41;35.68;99821.81;5037429;28;20406;-74
2021/09/02 07:41:57;;;;;;;5.25;3.95;;;;;;;23.46;35.77;99836.16;5053648;28;20418;-75
2021/09/02 07:44:23;;;;;;;5.78;4.20;;;;;;;23.40;35.52;99806.72;5037822;28;20026;-75
2021/09/02 07:46:48;;;;;;;7.03;4.07;;;;;;;23.52;35.34;99828.94;5032172;28;20048;-75
2021/09/02 07:49:15;;;;;;;5.03;3.10;;;;;;;23.28;35.50;99796.09;5033702;28;20083;-75
2021/09/02 07:51:42;;;;;;;4.68;3.13;;;;;;;23.44;35.12;99832.91;5032519;28;20020;-75
2021/09/02 07:54:07;;;;;;;5.55;3.25;;;;;;;23.33;35.28;99801.53;5033252;28;20030;-75
2021/09/02 07:56:33;;;;;;;4.43;3.08;;;;;;;23.57;35.14;99814.72;5048345;28;20078;-75
2021/09/02 07:58:58;;;;;;;4.32;3.40;;;;;;;23.62;34.96;99809.38;5053277;28;20021;-74
2021/09/02 08:01:24;;;;;;;6.10;3.28;;;;;;;23.74;34.74;99831.56;5057399;28;20016;-77
2021/09/02 08:03:49;;;;;;;5.70;3.00;;;;;;;23.65;34.90;99825.84;5073101;28;20630;-75
2021/09/02 08:06:15;;;;;;;4.80;3.53;;;;;;;23.36;34.98;99749.84;5073078;28;20016;-75
2021/09/02 08:08:40;;;;;;;6.53;3.63;;;;;;;23.87;34.67;99817.69;5072978;28;20066;-75
2021/09/02 08:11:06;;;;;;;6.95;4.60;;;;;;;23.74;34.56;99777.66;5073153;28;20020;-75
2021/09/02 08:13:31;;;;;;;6.32;4.93;;;;;;;23.84;34.72;99793.13;5072986;28;20044;-76
2021/09/02 08:15:57;;;;;;;7.13;5.18;;;;;;;23.81;34.49;99775.56;5042025;28;20033;-75
2021/09/02 08:18:22;;;;;;;5.25;4.45;;;;;;;23.87;34.22;99755.66;5032935;28;20486;-74
2021/09/02 08:20:47;;;;;;;4.82;4.28;;;;;;;24.02;34.16;99758.44;5033282;28;20029;-75
2021/09/02 08:23:13;;;;;;;6.45;5.45;;;;;;;24.09;33.95;99750.94;5032896;28;20021;-75
2021/09/02 08:25:38;;;;;;;7.07;4.72;;;;;;;24.44;33.73;99814.28;5032394;28;20022;-75
2021/09/02 08:28:04;;;;;;;7.38;4.13;;;;;;;24.35;33.78;99797.78;5032946;28;20025;-75
2021/09/02 08:30:30;;;;;;;3.42;3.00;;;;;;;24.47;33.58;99810.25;5032801;28;20029;-76
2021/09/02 08:32:56;;;;;;;4.15;3.20;;;;;;;24.37;33.54;99790.25;5032911;28;20022;-75
2021/09/02 08:35:25;;;;;;;4.05;3.60;;;;;;;24.61;33.66;99808.72;5032945;28;20026;-76
2021/09/02 08:37:55;;;;;;;7.43;5.60;;;;;;;24.72;33.58;99802.28;5032952;28;20730;-76
2021/09/02 08:40:25;;;;;;;6.25;4.47;;;;;;;24.65;33.39;99777.44;5030952;28;20343;-75
2021/09/02 08:42:53;;;;;;;9.55;7.57;;;;;;;24.74;33.50;99788.53;5032514;28;20036;-76
2021/09/02 08:45:19;;;;;;;7.07;4.40;;;;;;;24.78;33.46;99795.84;5032381;28;20039;-76
2021/09/02 08:47:46;;;;;;;7.53;4.75;;;;;;;24.96;33.09;99797.22;5032478;28;20486;-75
2021/09/02 08:50:12;;;;;;;5.13;3.60;;;;;;;25.05;32.91;99803.78;5032063;28;20045;-76
2021/09/02 08:52:38;;;;;;;7.07;4.43;;;;;;;25.10;32.55;99782.16;5032229;28;20034;-76
2021/09/02 08:55:04;;;;;;;4.75;3.33;;;;;;;25.17;32.31;99792.72;5032251;28;20025;-74
2021/09/02 08:57:30;;;;;;;4.32;3.92;;;;;;;25.06;32.48;99742.44;5032659;28;20091;-76
2021/09/02 08:59:55;;;;;;;4.63;3.05;;;;;;;25.44;32.37;99774.38;5032208;28;20449;-75
2021/09/02 09:02:27;;;;;;;6.25;4.38;;;;;;;24.98;32.14;99673.53;5032326;28;20555;-75
2021/09/02 09:05:05;;;;;;;4.05;3.70;;;;;;;25.40;31.60;99723.84;5030731;28;20021;-75
2021/09/02 09:07:33;;;;;;;4.57;4.15;;;;;;;25.80;31.99;99775.22;5032239;28;20081;-75
2021/09/02 09:09:59;;;;;;;5.75;3.63;;;;;;;25.82;31.64;99756.81;5032050;28;20405;-75
2021/09/02 09:12:36;;;;;;;5.80;3.40;;;;;;;26.04;30.86;99743.00;5032092;28;20037;-75
2021/09/02 09:15:03;;;;;;;5.50;3.47;;;;;;;25.98;31.04;99744.88;5031793;28;20042;-76
2021/09/02 09:17:29;;;;;;;7.65;5.15;;;;;;;26.16;31.13;99737.28;5032077;28;20025;-75
2021/09/02 09:19:57;;;;;;;4.47;3.50;;;;;;;26.27;30.77;99717.22;5031731;28;20498;-75
2021/09/02 09:22:27;;;;;;;8.32;4.20;;;;;;;26.42;30.52;99721.78;5031796;28;20025;-75
2021/09/02 09:24:58;;;;;;;6.40;3.50;;;;;;;26.76;30.19;99757.94;5032049;28;20406;-81
2021/09/02 09:27:35;;;;;;;5.03;3.78;;;;;;;26.90;29.61;99756.22;5031927;28;20108;-82
2021/09/02 09:30:08;;;;;;;4.97;3.03;;;;;;;26.73;29.87;99712.41;5031872;28;20052;-82
2021/09/02 09:32:44;;;;;;;5.05;3.08;;;;;;;27.14;29.48;99740.09;5030707;28;20051;-82
2021/09/02 09:35:13;;;;;;;3.50;3.20;;;;;;;27.25;29.43;99753.56;5031356;28;20413;-82
2021/09/02 09:37:40;;;;;;;4.22;3.05;;;;;;;27.38;28.92;99742.88;5031647;28;20017;-81
2021/09/02 09:40:17;;;;;;;7.55;4.05;;;;;;;27.54;28.56;99732.75;5031606;28;20087;-81
2021/09/02 09:42:59;;;;;;;4.95;3.83;;;;;;;27.77;27.52;99739.34;5031731;28;20017;-82
2021/09/02 09:45:56;;;;;;;5.30;3.17;;;;;;;27.91;28.17;99739.47;5031747;28;20036;-82
2021/09/02 09:48:22;;;;;;;6.32;4.72;;;;;;;28.22;27.65;99743.47;5031165;28;20041;-81
2021/09/02 09:51:20;;;;;;;3.95;2.25;;;;;;;27.85;27.07;99696.09;5031421;28;20055;-82
2021/09/02 09:53:48;;;;;;;3.55;2.40;;;;;;;27.82;26.71;99674.16;5026561;28;20128;-81
2021/09/02 09:56:17;;;;;;;4.28;3.40;;;;;;;27.90;26.85;99670.81;5011603;28;20037;-81
2021/09/02 09:58:44;;;;;;;4.18;3.55;;;;;;;28.32;26.69;99726.31;5010364;28;20478;-82
2021/09/02 10:01:12;;;;;;;3.53;2.65;;;;;;;28.35;26.54;99704.81;5011736;28;20030;-82
2021/09/02 10:03:39;;;;;;;2.22;2.03;;;;;;;28.55;26.27;99730.06;5011625;28;20113;-82
2021/09/02 10:06:09;;;;;;;2.75;2.55;;;;;;;28.28;26.08;99669.06;5011301;28;20376;-81
2021/09/02 10:08:37;;;;;;;3.25;2.63;;;;;;;28.52;26.01;99660.03;5011618;28;20486;-82
2021/09/02 10:11:05;;;;;;;3.10;2.63;;;;;;;29.12;25.84;99710.00;5011753;28;20109;-82
2021/09/02 10:13:31;;;;;;;5.57;2.70;;;;;;;29.12;25.65;99679.28;5011321;28;20426;-82
2021/09/02 10:15:57;;;;;;;5.07;2.65;;;;;;;29.64;25.44;99708.84;5010575;28;20026;-82
2021/09/02 10:18:23;;;;;;;3.92;2.40;;;;;;;29.47;25.11;99658.84;5012427;28;20048;-82
2021/09/02 10:20:48;;;;;;;6.97;3.15;;;;;;;29.84;24.75;99715.06;5011480;28;20088;-80
2021/09/02 10:23:21;;;;;;;7.32;2.78;;;;;;;29.58;25.04;99679.31;5009955;28;20029;-82
2021/09/02 10:25:46;;;;;;;3.25;2.63;;;;;;;29.88;24.82;99705.19;5011255;28;20502;-81
2021/09/02 10:28:22;;;;;;;8.13;2.78;;;;;;;29.90;24.46;99694.78;5011174;28;20112;-82
2021/09/02 10:30:50;;;;;;;8.50;2.53;;;;;;;30.10;24.63;99705.31;5011401;28;20482;-82
2021/09/02 10:33:36;;;;;;;3.38;2.40;;;;;;;30.31;23.86;99698.34;5011437;28;20112;-83
2021/09/02 10:36:23;;;;;;;3.10;2.80;;;;;;;30.50;23.97;99705.59;5010116;28;20041;-82
2021/09/02 10:38:52;;;;;;;5.78;3.08;;;;;;;30.56;24.13;99694.28;5010322;28;20510;-82
2021/09/02 10:41:36;;;;;;;3.92;2.40;;;;;;;30.59;23.94;99706.53;5011246;28;20022;-81
2021/09/02 10:44:05;;;;;;;4.03;2.67;;;;;;;30.63;23.68;99693.88;5011071;28;20033;-81
2021/09/02 10:46:39;;;;;;;4.20;2.72;;;;;;;30.84;23.86;99689.59;5011183;28;20479;-81
2021/09/02 10:49:32;;;;;;;5.07;2.20;;;;;;;31.10;23.44;99700.69;5013909;28;20026;-82
2021/09/02 10:51:59;;;;;;;4.70;2.95;;;;;;;31.14;23.47;99698.94;5020617;28;20414;-81
2021/09/02 10:54:36;;;;;;;4.95;3.08;;;;;;;31.12;22.70;99660.25;5021644;28;20037;-81
2021/09/02 10:57:11;;;;;;;5.18;3.00;;;;;;;31.43;23.28;99706.72;5016852;28;20512;-83
2021/09/02 10:59:49;;;;;;;4.88;3.53;;;;;;;31.59;22.53;99710.69;5014938;28;20457;-81
2021/09/02 11:02:18;;;;;;;4.68;3.33;;;;;;;31.79;22.34;99716.75;5014485;28;20030;-82
2021/09/02 11:04:44;;;;;;;3.88;2.20;;;;;;;31.90;21.97;99707.94;5014736;28;20457;-81
2021/09/02 11:07:10;;;;;;;5.30;3.38;;;;;;;31.91;21.84;99674.06;5014896;28;20109;-82
2021/09/02 11:09:38;;;;;;;4.65;3.70;;;;;;;32.07;21.76;99696.31;5014597;28;20092;-82
2021/09/02 11:12:08;;;;;;;2.40;2.20;;;;;;;32.26;21.72;99703.47;5015501;28;20025;-81
2021/09/02 11:14:46;;;;;;;4.18;2.88;;;;;;;32.43;21.66;99707.03;5031708;28;20603;-81
2021/09/02 11:17:13;;;;;;;3.30;3.00;;;;;;;32.49;21.69;99699.47;5033915;28;20494;-81
2021/09/02 11:19:40;;;;;;;3.60;3.25;;;;;;;32.59;21.58;99692.91;5034101;28;20033;-81
2021/09/02 11:22:17;;;;;;;4.80;3.03;;;;;;;32.56;20.42;99708.00;5029827;28;20428;-81
2021/09/02 11:24:45;;;;;;;3.60;2.90;;;;;;;32.08;21.55;99669.78;5026080;28;20518;-74
2021/09/02 11:27:15;;;;;;;2.95;2.33;;;;;;;32.35;21.41;99693.34;5034039;28;20037;-75
2021/09/02 11:29:41;;;;;;;4.88;2.30;;;;;;;32.52;21.09;99691.44;5032754;28;20029;-73
2021/09/02 11:32:11;;;;;;;4.57;3.00;;;;;;;32.49;21.51;99694.81;5034085;28;20552;-73
2021/09/02 11:34:38;;;;;;;4.43;3.35;;;;;;;32.62;21.38;99682.13;5031689;28;20093;-72